Terminal Aerodrome Forecast
Issued by NWS Upton, NY

Home | Current Version | Previous Version | Text Only | Print | Product List | Glossary On
Versions: 1 2 3 4 5 6 7 8 9 10 11 12 13 14 15 16 17 18 19 20 21 22 23 24 25 26 27 28 29 30 31 32 33 34 35 36 37 38
723
FTUS41 KOKX 161937 AAA
TAFJFK
TAF AMD
KJFK 161937Z 1620/1724 22007KT P6SM BKN250
     FM170300 24005KT P6SM OVC080
     FM171200 VRB04KT P6SM SCT020 OVC050
     FM171400 15005KT P6SM SCT008 BKN020 OVC040
     FM171900 13008KT 3SM -RA BR BKN008 OVC015=

USA.gov is the U.S. government's official web portal to all federal, state and local government web resources and services.